Terminal Aerodrome Forecast
Issued by NWS Sterling, VA

Current Version | Previous Version | Text Only | Print | Product List | Glossary Off
Versions: 1 2 3 4 5 6 7 8 9 10 11 12 13 14 15 16 17 18 19 20 21 22 23 24 25 26 27

829
FTUS41 KLWX 241625 AAA
TAFDCA
TAF AMD
KDCA 241625Z 2416/2512 35010KT P6SM SCT040 SCT250
     FM242200 27007KT P6SM VCTS BKN040CB
     FM250000 27006KT P6SM SCT060 SCT250
     FM250500 33004KT P6SM SCT060 SCT250=

USA.gov is the U.S. government's official web portal to all federal, state and local government web resources and services.